sensor_id;sensor_type;location;lat;lon;timestamp;P1;durP1;ratioP1;P2;durP2;ratioP2
56999;SDS011;42891;50.006;21.964;2022-12-07T00:00:47;18.67;;;10.60;;
56999;SDS011;42891;50.006;21.964;2022-12-07T00:04:48;12.88;;;8.68;;
56999;SDS011;42891;50.006;21.964;2022-12-07T00:08:49;16.10;;;10.20;;
56999;SDS011;42891;50.006;21.964;2022-12-07T00:12:49;15.15;;;9.52;;
56999;SDS011;42891;50.006;21.964;2022-12-07T00:16:50;15.60;;;9.68;;
56999;SDS011;42891;50.006;21.964;2022-12-07T00:20:51;16.80;;;10.68;;
56999;SDS011;42891;50.006;21.964;2022-12-07T00:24:52;14.57;;;8.55;;
56999;SDS011;42891;50.006;21.964;2022-12-07T00:28:53;15.83;;;8.90;;
56999;SDS011;42891;50.006;21.964;2022-12-07T00:32:57;14.27;;;8.83;;
56999;SDS011;42891;50.006;21.964;2022-12-07T00:36:57;14.03;;;9.20;;
56999;SDS011;42891;50.006;21.964;2022-12-07T00:41:01;15.70;;;9.07;;
56999;SDS011;42891;50.006;21.964;2022-12-07T00:45:03;14.05;;;8.10;;
56999;SDS011;42891;50.006;21.964;2022-12-07T00:49:04;14.23;;;8.55;;
56999;SDS011;42891;50.006;21.964;2022-12-07T00:53:04;12.65;;;8.40;;
56999;SDS011;42891;50.006;21.964;2022-12-07T00:57:04;13.57;;;8.30;;
56999;SDS011;42891;50.006;21.964;2022-12-07T01:01:05;14.40;;;9.17;;
56999;SDS011;42891;50.006;21.964;2022-12-07T01:05:08;11.88;;;8.38;;
56999;SDS011;42891;50.006;21.964;2022-12-07T01:09:08;11.68;;;7.95;;
56999;SDS011;42891;50.006;21.964;2022-12-07T01:13:08;11.77;;;8.50;;
56999;SDS011;42891;50.006;21.964;2022-12-07T01:17:09;14.05;;;8.70;;
56999;SDS011;42891;50.006;21.964;2022-12-07T01:21:10;10.77;;;8.10;;
56999;SDS011;42891;50.006;21.964;2022-12-07T01:25:20;12.05;;;8.13;;
56999;SDS011;42891;50.006;21.964;2022-12-07T01:29:20;10.30;;;7.82;;
56999;SDS011;42891;50.006;21.964;2022-12-07T01:33:21;11.32;;;8.02;;
56999;SDS011;42891;50.006;21.964;2022-12-07T01:37:21;10.55;;;8.02;;
56999;SDS011;42891;50.006;21.964;2022-12-07T01:41:22;11.05;;;7.78;;
56999;SDS011;42891;50.006;21.964;2022-12-07T01:45:44;11.73;;;8.00;;
56999;SDS011;42891;50.006;21.964;2022-12-07T01:49:45;10.57;;;8.00;;
56999;SDS011;42891;50.006;21.964;2022-12-07T01:53:48;10.98;;;8.38;;
56999;SDS011;42891;50.006;21.964;2022-12-07T01:57:50;11.43;;;7.68;;
56999;SDS011;42891;50.006;21.964;2022-12-07T02:01:54;11.30;;;8.25;;
56999;SDS011;42891;50.006;21.964;2022-12-07T02:05:55;11.18;;;8.20;;
56999;SDS011;42891;50.006;21.964;2022-12-07T02:09:57;11.13;;;7.78;;
56999;SDS011;42891;50.006;21.964;2022-12-07T02:13:57;14.73;;;8.73;;
56999;SDS011;42891;50.006;21.964;2022-12-07T02:18:01;11.82;;;8.05;;
56999;SDS011;42891;50.006;21.964;2022-12-07T02:26:35;11.90;;;7.75;;
56999;SDS011;42891;50.006;21.964;2022-12-07T02:30:46;12.48;;;8.23;;
56999;SDS011;42891;50.006;21.964;2022-12-07T02:34:51;13.00;;;8.98;;
56999;SDS011;42891;50.006;21.964;2022-12-07T02:39:00;11.80;;;7.97;;
56999;SDS011;42891;50.006;21.964;2022-12-07T02:43:07;11.82;;;8.35;;
56999;SDS011;42891;50.006;21.964;2022-12-07T02:47:14;9.88;;;7.38;;
56999;SDS011;42891;50.006;21.964;2022-12-07T02:51:17;11.73;;;7.75;;
56999;SDS011;42891;50.006;21.964;2022-12-07T02:55:19;10.35;;;8.05;;
56999;SDS011;42891;50.006;21.964;2022-12-07T03:13:49;11.98;;;8.63;;
56999;SDS011;42891;50.006;21.964;2022-12-07T03:17:54;11.07;;;8.45;;
56999;SDS011;42891;50.006;21.964;2022-12-07T03:21:57;12.20;;;8.80;;
56999;SDS011;42891;50.006;21.964;2022-12-07T03:30:06;12.57;;;7.85;;
56999;SDS011;42891;50.006;21.964;2022-12-07T03:34:13;9.98;;;7.65;;
56999;SDS011;42891;50.006;21.964;2022-12-07T03:38:19;12.38;;;7.88;;
56999;SDS011;42891;50.006;21.964;2022-12-07T03:42:23;10.52;;;7.68;;
56999;SDS011;42891;50.006;21.964;2022-12-07T03:46:29;10.73;;;7.50;;
56999;SDS011;42891;50.006;21.964;2022-12-07T03:50:41;9.85;;;7.25;;
56999;SDS011;42891;50.006;21.964;2022-12-07T03:55:32;9.95;;;7.28;;
56999;SDS011;42891;50.006;21.964;2022-12-07T03:59:17;10.20;;;7.10;;
56999;SDS011;42891;50.006;21.964;2022-12-07T04:03:19;10.15;;;7.43;;
56999;SDS011;42891;50.006;21.964;2022-12-07T04:07:19;12.23;;;7.97;;
56999;SDS011;42891;50.006;21.964;2022-12-07T04:11:20;10.93;;;8.07;;
56999;SDS011;42891;50.006;21.964;2022-12-07T04:15:20;11.32;;;8.05;;
56999;SDS011;42891;50.006;21.964;2022-12-07T04:19:21;11.02;;;8.00;;
56999;SDS011;42891;50.006;21.964;2022-12-07T04:23:23;14.48;;;8.75;;
56999;SDS011;42891;50.006;21.964;2022-12-07T04:27:23;9.73;;;7.00;;
56999;SDS011;42891;50.006;21.964;2022-12-07T04:31:23;11.00;;;8.02;;
56999;SDS011;42891;50.006;21.964;2022-12-07T04:35:23;13.15;;;9.43;;
56999;SDS011;42891;50.006;21.964;2022-12-07T04:39:25;11.50;;;8.02;;
56999;SDS011;42891;50.006;21.964;2022-12-07T04:43:27;12.85;;;8.38;;
56999;SDS011;42891;50.006;21.964;2022-12-07T04:47:27;11.15;;;7.68;;
56999;SDS011;42891;50.006;21.964;2022-12-07T04:51:28;12.45;;;8.15;;
56999;SDS011;42891;50.006;21.964;2022-12-07T04:55:29;10.93;;;8.15;;
56999;SDS011;42891;50.006;21.964;2022-12-07T04:59:29;11.17;;;7.73;;
56999;SDS011;42891;50.006;21.964;2022-12-07T05:03:29;10.63;;;8.13;;
56999;SDS011;42891;50.006;21.964;2022-12-07T05:07:30;10.82;;;7.57;;
56999;SDS011;42891;50.006;21.964;2022-12-07T05:11:30;9.87;;;7.57;;
56999;SDS011;42891;50.006;21.964;2022-12-07T05:15:39;12.80;;;8.45;;
56999;SDS011;42891;50.006;21.964;2022-12-07T05:19:39;11.10;;;7.57;;
56999;SDS011;42891;50.006;21.964;2022-12-07T05:23:39;10.73;;;7.63;;
56999;SDS011;42891;50.006;21.964;2022-12-07T05:27:40;10.00;;;7.32;;
56999;SDS011;42891;50.006;21.964;2022-12-07T05:31:40;11.80;;;8.60;;
56999;SDS011;42891;50.006;21.964;2022-12-07T05:35:40;12.43;;;9.10;;
56999;SDS011;42891;50.006;21.964;2022-12-07T05:39:41;11.30;;;8.10;;
56999;SDS011;42891;50.006;21.964;2022-12-07T05:43:42;11.18;;;7.30;;
56999;SDS011;42891;50.006;21.964;2022-12-07T05:47:42;9.47;;;7.13;;
56999;SDS011;42891;50.006;21.964;2022-12-07T05:51:43;11.37;;;6.90;;
56999;SDS011;42891;50.006;21.964;2022-12-07T05:55:43;10.20;;;6.78;;
56999;SDS011;42891;50.006;21.964;2022-12-07T05:59:43;9.23;;;6.70;;
56999;SDS011;42891;50.006;21.964;2022-12-07T06:03:44;9.73;;;6.30;;
56999;SDS011;42891;50.006;21.964;2022-12-07T06:07:45;8.05;;;5.93;;
56999;SDS011;42891;50.006;21.964;2022-12-07T06:11:45;6.93;;;5.93;;
56999;SDS011;42891;50.006;21.964;2022-12-07T06:16:04;10.25;;;6.93;;
56999;SDS011;42891;50.006;21.964;2022-12-07T06:20:05;8.48;;;6.43;;
56999;SDS011;42891;50.006;21.964;2022-12-07T06:24:06;9.40;;;7.32;;
56999;SDS011;42891;50.006;21.964;2022-12-07T06:28:06;9.52;;;6.88;;
56999;SDS011;42891;50.006;21.964;2022-12-07T06:32:07;9.50;;;7.05;;
56999;SDS011;42891;50.006;21.964;2022-12-07T06:36:07;9.93;;;7.43;;
56999;SDS011;42891;50.006;21.964;2022-12-07T06:40:08;9.73;;;7.07;;
56999;SDS011;42891;50.006;21.964;2022-12-07T06:44:09;9.57;;;7.55;;
56999;SDS011;42891;50.006;21.964;2022-12-07T06:48:09;8.98;;;6.20;;
56999;SDS011;42891;50.006;21.964;2022-12-07T06:52:10;10.50;;;7.47;;
56999;SDS011;42891;50.006;21.964;2022-12-07T06:56:10;9.48;;;7.80;;
56999;SDS011;42891;50.006;21.964;2022-12-07T07:00:10;9.27;;;7.40;;
56999;SDS011;42891;50.006;21.964;2022-12-07T07:04:11;11.27;;;8.02;;
56999;SDS011;42891;50.006;21.964;2022-12-07T07:08:12;14.07;;;11.05;;
56999;SDS011;42891;50.006;21.964;2022-12-07T07:12:13;15.63;;;12.88;;
56999;SDS011;42891;50.006;21.964;2022-12-07T07:16:13;11.13;;;7.97;;
56999;SDS011;42891;50.006;21.964;2022-12-07T07:20:14;11.73;;;8.02;;
56999;SDS011;42891;50.006;21.964;2022-12-07T07:24:14;13.65;;;8.57;;
56999;SDS011;42891;50.006;21.964;2022-12-07T07:28:15;11.57;;;9.00;;
56999;SDS011;42891;50.006;21.964;2022-12-07T07:32:15;12.05;;;9.65;;
56999;SDS011;42891;50.006;21.964;2022-12-07T07:36:16;11.55;;;9.30;;
56999;SDS011;42891;50.006;21.964;2022-12-07T07:40:16;9.63;;;8.50;;
56999;SDS011;42891;50.006;21.964;2022-12-07T07:44:16;13.48;;;9.32;;
56999;SDS011;42891;50.006;21.964;2022-12-07T07:48:17;30.10;;;15.90;;
56999;SDS011;42891;50.006;21.964;2022-12-07T07:52:17;15.30;;;10.60;;
56999;SDS011;42891;50.006;21.964;2022-12-07T07:56:17;11.25;;;9.07;;
56999;SDS011;42891;50.006;21.964;2022-12-07T08:00:18;12.37;;;9.53;;
56999;SDS011;42891;50.006;21.964;2022-12-07T08:04:18;14.50;;;10.85;;
56999;SDS011;42891;50.006;21.964;2022-12-07T08:08:18;12.82;;;9.70;;
56999;SDS011;42891;50.006;21.964;2022-12-07T08:12:19;12.70;;;9.17;;
56999;SDS011;42891;50.006;21.964;2022-12-07T08:16:19;12.50;;;9.70;;
56999;SDS011;42891;50.006;21.964;2022-12-07T08:20:20;12.55;;;9.77;;
56999;SDS011;42891;50.006;21.964;2022-12-07T08:24:20;10.80;;;9.02;;
56999;SDS011;42891;50.006;21.964;2022-12-07T08:28:20;11.80;;;9.63;;
56999;SDS011;42891;50.006;21.964;2022-12-07T08:32:21;11.27;;;8.70;;
56999;SDS011;42891;50.006;21.964;2022-12-07T08:36:21;11.90;;;9.40;;
56999;SDS011;42891;50.006;21.964;2022-12-07T08:40:22;21.40;;;13.75;;
56999;SDS011;42891;50.006;21.964;2022-12-07T08:44:23;13.80;;;11.25;;
56999;SDS011;42891;50.006;21.964;2022-12-07T08:48:23;23.42;;;16.52;;
56999;SDS011;42891;50.006;21.964;2022-12-07T08:52:25;23.58;;;15.68;;
56999;SDS011;42891;50.006;21.964;2022-12-07T08:56:25;21.25;;;15.60;;
56999;SDS011;42891;50.006;21.964;2022-12-07T09:00:26;20.88;;;15.20;;
56999;SDS011;42891;50.006;21.964;2022-12-07T09:04:26;19.10;;;12.85;;
56999;SDS011;42891;50.006;21.964;2022-12-07T09:08:31;16.95;;;11.05;;
56999;SDS011;42891;50.006;21.964;2022-12-07T09:12:34;13.98;;;11.23;;
56999;SDS011;42891;50.006;21.964;2022-12-07T09:16:35;13.75;;;9.75;;
56999;SDS011;42891;50.006;21.964;2022-12-07T09:20:35;12.15;;;9.30;;
56999;SDS011;42891;50.006;21.964;2022-12-07T09:24:35;14.57;;;10.05;;
56999;SDS011;42891;50.006;21.964;2022-12-07T09:28:36;12.88;;;10.32;;
56999;SDS011;42891;50.006;21.964;2022-12-07T09:32:36;14.68;;;10.18;;
56999;SDS011;42891;50.006;21.964;2022-12-07T09:36:36;15.43;;;11.30;;
56999;SDS011;42891;50.006;21.964;2022-12-07T09:40:37;16.83;;;12.07;;
56999;SDS011;42891;50.006;21.964;2022-12-07T09:44:39;17.02;;;13.55;;
56999;SDS011;42891;50.006;21.964;2022-12-07T09:48:40;16.35;;;13.52;;
56999;SDS011;42891;50.006;21.964;2022-12-07T09:52:43;17.70;;;13.60;;
56999;SDS011;42891;50.006;21.964;2022-12-07T09:56:45;18.88;;;13.70;;
56999;SDS011;42891;50.006;21.964;2022-12-07T10:00:45;15.77;;;11.73;;
56999;SDS011;42891;50.006;21.964;2022-12-07T10:04:46;13.73;;;11.07;;
56999;SDS011;42891;50.006;21.964;2022-12-07T10:08:46;15.60;;;11.52;;
56999;SDS011;42891;50.006;21.964;2022-12-07T10:12:57;15.75;;;12.32;;
56999;SDS011;42891;50.006;21.964;2022-12-07T10:17:02;14.23;;;10.80;;
56999;SDS011;42891;50.006;21.964;2022-12-07T10:21:13;16.70;;;11.82;;
56999;SDS011;42891;50.006;21.964;2022-12-07T10:25:18;18.77;;;12.50;;
56999;SDS011;42891;50.006;21.964;2022-12-07T10:29:30;23.38;;;15.48;;
56999;SDS011;42891;50.006;21.964;2022-12-07T10:33:44;24.38;;;15.50;;
56999;SDS011;42891;50.006;21.964;2022-12-07T10:37:53;28.75;;;17.38;;
56999;SDS011;42891;50.006;21.964;2022-12-07T10:42:02;24.45;;;16.48;;
56999;SDS011;42891;50.006;21.964;2022-12-07T11:00:01;23.00;;;14.88;;
56999;SDS011;42891;50.006;21.964;2022-12-07T11:04:12;23.88;;;14.52;;
56999;SDS011;42891;50.006;21.964;2022-12-07T11:13:10;14.18;;;10.70;;
56999;SDS011;42891;50.006;21.964;2022-12-07T11:30:12;16.83;;;11.80;;
56999;SDS011;42891;50.006;21.964;2022-12-07T11:38:25;14.13;;;9.68;;
56999;SDS011;42891;50.006;21.964;2022-12-07T11:42:37;13.13;;;9.70;;
56999;SDS011;42891;50.006;21.964;2022-12-07T11:50:52;10.55;;;7.93;;
56999;SDS011;42891;50.006;21.964;2022-12-07T11:54:57;10.68;;;8.60;;
56999;SDS011;42891;50.006;21.964;2022-12-07T12:03:29;17.67;;;14.27;;
56999;SDS011;42891;50.006;21.964;2022-12-07T12:07:34;9.95;;;7.45;;
56999;SDS011;42891;50.006;21.964;2022-12-07T12:20:13;11.75;;;9.07;;
56999;SDS011;42891;50.006;21.964;2022-12-07T12:32:38;13.07;;;9.25;;
56999;SDS011;42891;50.006;21.964;2022-12-07T12:40:41;12.75;;;9.32;;
56999;SDS011;42891;50.006;21.964;2022-12-07T12:45:02;12.73;;;9.07;;
56999;SDS011;42891;50.006;21.964;2022-12-07T12:53:24;15.13;;;10.07;;
56999;SDS011;42891;50.006;21.964;2022-12-07T12:57:27;15.95;;;9.82;;
56999;SDS011;42891;50.006;21.964;2022-12-07T13:05:35;12.77;;;8.65;;
56999;SDS011;42891;50.006;21.964;2022-12-07T13:09:35;11.70;;;8.43;;
56999;SDS011;42891;50.006;21.964;2022-12-07T13:13:36;9.85;;;7.38;;
56999;SDS011;42891;50.006;21.964;2022-12-07T13:21:42;18.33;;;11.93;;
56999;SDS011;42891;50.006;21.964;2022-12-07T13:30:20;17.45;;;11.38;;
56999;SDS011;42891;50.006;21.964;2022-12-07T13:34:34;16.95;;;11.00;;
56999;SDS011;42891;50.006;21.964;2022-12-07T13:38:35;16.67;;;11.63;;
56999;SDS011;42891;50.006;21.964;2022-12-07T13:42:37;13.00;;;9.43;;
56999;SDS011;42891;50.006;21.964;2022-12-07T13:46:43;12.13;;;9.18;;
56999;SDS011;42891;50.006;21.964;2022-12-07T13:50:52;15.10;;;10.32;;
56999;SDS011;42891;50.006;21.964;2022-12-07T13:59:09;14.32;;;11.15;;
56999;SDS011;42891;50.006;21.964;2022-12-07T14:07:27;44.97;;;23.42;;
56999;SDS011;42891;50.006;21.964;2022-12-07T14:11:28;28.33;;;17.33;;
56999;SDS011;42891;50.006;21.964;2022-12-07T14:15:31;25.13;;;16.50;;
56999;SDS011;42891;50.006;21.964;2022-12-07T14:28:33;26.17;;;15.85;;
56999;SDS011;42891;50.006;21.964;2022-12-07T14:32:36;23.40;;;14.90;;
56999;SDS011;42891;50.006;21.964;2022-12-07T14:36:37;22.17;;;14.30;;
56999;SDS011;42891;50.006;21.964;2022-12-07T14:40:38;27.48;;;17.17;;
56999;SDS011;42891;50.006;21.964;2022-12-07T14:44:39;43.38;;;24.90;;
56999;SDS011;42891;50.006;21.964;2022-12-07T14:48:39;47.05;;;29.52;;
56999;SDS011;42891;50.006;21.964;2022-12-07T14:52:39;51.35;;;32.25;;
56999;SDS011;42891;50.006;21.964;2022-12-07T14:56:41;82.00;;;50.88;;
56999;SDS011;42891;50.006;21.964;2022-12-07T15:00:44;63.08;;;36.08;;
56999;SDS011;42891;50.006;21.964;2022-12-07T15:04:44;81.28;;;44.88;;
56999;SDS011;42891;50.006;21.964;2022-12-07T15:08:45;62.37;;;36.60;;
56999;SDS011;42891;50.006;21.964;2022-12-07T15:12:45;67.93;;;37.40;;
56999;SDS011;42891;50.006;21.964;2022-12-07T15:16:46;63.17;;;35.90;;
56999;SDS011;42891;50.006;21.964;2022-12-07T15:20:47;116.30;;;59.83;;
56999;SDS011;42891;50.006;21.964;2022-12-07T15:24:47;58.75;;;34.13;;
56999;SDS011;42891;50.006;21.964;2022-12-07T15:28:48;50.33;;;30.17;;
56999;SDS011;42891;50.006;21.964;2022-12-07T15:32:51;49.77;;;29.27;;
56999;SDS011;42891;50.006;21.964;2022-12-07T15:36:52;50.65;;;28.25;;
56999;SDS011;42891;50.006;21.964;2022-12-07T15:40:52;56.88;;;32.65;;
56999;SDS011;42891;50.006;21.964;2022-12-07T15:44:53;55.67;;;31.43;;
56999;SDS011;42891;50.006;21.964;2022-12-07T15:49:10;45.60;;;26.23;;
56999;SDS011;42891;50.006;21.964;2022-12-07T15:53:12;89.32;;;56.97;;
56999;SDS011;42891;50.006;21.964;2022-12-07T15:57:12;70.50;;;45.67;;
56999;SDS011;42891;50.006;21.964;2022-12-07T16:01:13;41.67;;;24.92;;
56999;SDS011;42891;50.006;21.964;2022-12-07T16:05:16;61.78;;;34.00;;
56999;SDS011;42891;50.006;21.964;2022-12-07T16:09:16;43.17;;;26.58;;
56999;SDS011;42891;50.006;21.964;2022-12-07T16:13:17;44.40;;;26.05;;
56999;SDS011;42891;50.006;21.964;2022-12-07T16:17:19;49.58;;;27.23;;
56999;SDS011;42891;50.006;21.964;2022-12-07T16:21:19;77.13;;;36.67;;
56999;SDS011;42891;50.006;21.964;2022-12-07T16:25:19;42.42;;;25.60;;
56999;SDS011;42891;50.006;21.964;2022-12-07T16:29:20;61.97;;;32.83;;
56999;SDS011;42891;50.006;21.964;2022-12-07T16:33:22;103.95;;;48.72;;
56999;SDS011;42891;50.006;21.964;2022-12-07T18:26:48;35.67;;;21.52;;
56999;SDS011;42891;50.006;21.964;2022-12-07T18:30:50;43.30;;;29.50;;
56999;SDS011;42891;50.006;21.964;2022-12-07T18:34:50;192.25;;;68.80;;
56999;SDS011;42891;50.006;21.964;2022-12-07T18:38:50;351.77;;;113.40;;
56999;SDS011;42891;50.006;21.964;2022-12-07T18:42:51;223.23;;;76.32;;
56999;SDS011;42891;50.006;21.964;2022-12-07T18:46:51;604.60;;;244.50;;
56999;SDS011;42891;50.006;21.964;2022-12-07T18:50:58;218.80;;;79.63;;
56999;SDS011;42891;50.006;21.964;2022-12-07T18:55:01;346.35;;;127.32;;
56999;SDS011;42891;50.006;21.964;2022-12-07T18:59:02;511.63;;;219.82;;
56999;SDS011;42891;50.006;21.964;2022-12-07T19:03:22;439.38;;;190.00;;
56999;SDS011;42891;50.006;21.964;2022-12-07T19:07:22;187.45;;;89.43;;
56999;SDS011;42891;50.006;21.964;2022-12-07T19:11:24;222.90;;;107.70;;
56999;SDS011;42891;50.006;21.964;2022-12-07T19:15:46;112.70;;;62.45;;
56999;SDS011;42891;50.006;21.964;2022-12-07T19:19:48;107.05;;;61.15;;
56999;SDS011;42891;50.006;21.964;2022-12-07T19:23:48;88.50;;;53.73;;
56999;SDS011;42891;50.006;21.964;2022-12-07T19:27:48;84.22;;;49.30;;
56999;SDS011;42891;50.006;21.964;2022-12-07T19:31:48;71.80;;;44.20;;
56999;SDS011;42891;50.006;21.964;2022-12-07T19:35:49;58.33;;;38.63;;
56999;SDS011;42891;50.006;21.964;2022-12-07T19:39:49;113.53;;;57.57;;
56999;SDS011;42891;50.006;21.964;2022-12-07T19:43:50;144.75;;;55.28;;
56999;SDS011;42891;50.006;21.964;2022-12-07T19:47:51;435.27;;;117.57;;
56999;SDS011;42891;50.006;21.964;2022-12-07T19:51:52;160.87;;;56.17;;
56999;SDS011;42891;50.006;21.964;2022-12-07T19:55:54;514.72;;;145.00;;
56999;SDS011;42891;50.006;21.964;2022-12-07T19:59:54;99.47;;;55.70;;
56999;SDS011;42891;50.006;21.964;2022-12-07T20:03:55;312.95;;;90.57;;
56999;SDS011;42891;50.006;21.964;2022-12-07T20:07:56;426.80;;;129.60;;
56999;SDS011;42891;50.006;21.964;2022-12-07T20:11:57;304.52;;;101.88;;
56999;SDS011;42891;50.006;21.964;2022-12-07T20:16:15;312.67;;;103.28;;
56999;SDS011;42891;50.006;21.964;2022-12-07T20:20:16;230.68;;;86.70;;
56999;SDS011;42891;50.006;21.964;2022-12-07T20:24:18;88.55;;;39.20;;
56999;SDS011;42891;50.006;21.964;2022-12-07T20:28:20;76.68;;;36.80;;
56999;SDS011;42891;50.006;21.964;2022-12-07T20:32:21;190.63;;;62.25;;
56999;SDS011;42891;50.006;21.964;2022-12-07T20:36:22;56.20;;;28.50;;
56999;SDS011;42891;50.006;21.964;2022-12-07T20:40:22;46.78;;;25.70;;
56999;SDS011;42891;50.006;21.964;2022-12-07T20:44:22;50.75;;;25.40;;
56999;SDS011;42891;50.006;21.964;2022-12-07T20:48:23;112.72;;;38.67;;
56999;SDS011;42891;50.006;21.964;2022-12-07T20:52:23;116.45;;;38.25;;
56999;SDS011;42891;50.006;21.964;2022-12-07T20:56:25;165.80;;;51.17;;
56999;SDS011;42891;50.006;21.964;2022-12-07T21:00:27;122.57;;;39.50;;
56999;SDS011;42891;50.006;21.964;2022-12-07T21:04:27;137.88;;;44.13;;
56999;SDS011;42891;50.006;21.964;2022-12-07T21:08:28;122.47;;;42.83;;
56999;SDS011;42891;50.006;21.964;2022-12-07T21:12:28;38.17;;;21.27;;
56999;SDS011;42891;50.006;21.964;2022-12-07T21:16:29;30.90;;;19.67;;
56999;SDS011;42891;50.006;21.964;2022-12-07T21:20:30;105.45;;;37.92;;
56999;SDS011;42891;50.006;21.964;2022-12-07T21:24:31;79.68;;;31.35;;
56999;SDS011;42891;50.006;21.964;2022-12-07T21:28:31;79.17;;;35.23;;
56999;SDS011;42891;50.006;21.964;2022-12-07T21:32:31;43.77;;;24.87;;
56999;SDS011;42891;50.006;21.964;2022-12-07T21:36:32;41.90;;;22.47;;
56999;SDS011;42891;50.006;21.964;2022-12-07T21:40:33;39.63;;;21.70;;
56999;SDS011;42891;50.006;21.964;2022-12-07T21:44:33;31.87;;;20.03;;
56999;SDS011;42891;50.006;21.964;2022-12-07T21:48:34;33.00;;;21.42;;
56999;SDS011;42891;50.006;21.964;2022-12-07T21:52:34;38.22;;;22.88;;
56999;SDS011;42891;50.006;21.964;2022-12-07T21:56:36;33.63;;;19.17;;
56999;SDS011;42891;50.006;21.964;2022-12-07T22:00:38;28.20;;;17.33;;
56999;SDS011;42891;50.006;21.964;2022-12-07T22:04:39;22.77;;;15.38;;
56999;SDS011;42891;50.006;21.964;2022-12-07T22:08:39;22.20;;;15.53;;
56999;SDS011;42891;50.006;21.964;2022-12-07T22:12:40;22.48;;;14.65;;
56999;SDS011;42891;50.006;21.964;2022-12-07T22:16:40;23.47;;;15.50;;
56999;SDS011;42891;50.006;21.964;2022-12-07T22:20:41;23.08;;;16.75;;
56999;SDS011;42891;50.006;21.964;2022-12-07T22:24:41;24.33;;;17.47;;
56999;SDS011;42891;50.006;21.964;2022-12-07T22:28:45;27.33;;;16.70;;
56999;SDS011;42891;50.006;21.964;2022-12-07T22:32:46;26.88;;;16.10;;
56999;SDS011;42891;50.006;21.964;2022-12-07T22:36:46;30.13;;;18.67;;
56999;SDS011;42891;50.006;21.964;2022-12-07T22:40:47;30.30;;;17.75;;
56999;SDS011;42891;50.006;21.964;2022-12-07T22:44:47;27.50;;;15.67;;
56999;SDS011;42891;50.006;21.964;2022-12-07T22:48:48;26.90;;;16.40;;
56999;SDS011;42891;50.006;21.964;2022-12-07T22:52:48;30.98;;;17.42;;
56999;SDS011;42891;50.006;21.964;2022-12-07T22:56:52;30.08;;;17.80;;
56999;SDS011;42891;50.006;21.964;2022-12-07T23:00:52;29.67;;;17.83;;
56999;SDS011;42891;50.006;21.964;2022-12-07T23:04:52;31.77;;;17.90;;
56999;SDS011;42891;50.006;21.964;2022-12-07T23:08:54;33.80;;;17.30;;
56999;SDS011;42891;50.006;21.964;2022-12-07T23:12:55;31.35;;;18.58;;
56999;SDS011;42891;50.006;21.964;2022-12-07T23:17:14;29.02;;;16.67;;
56999;SDS011;42891;50.006;21.964;2022-12-07T23:21:14;30.88;;;17.67;;
56999;SDS011;42891;50.006;21.964;2022-12-07T23:25:15;26.67;;;15.43;;
56999;SDS011;42891;50.006;21.964;2022-12-07T23:29:15;28.27;;;16.05;;
56999;SDS011;42891;50.006;21.964;2022-12-07T23:33:15;26.40;;;15.70;;
56999;SDS011;42891;50.006;21.964;2022-12-07T23:37:16;27.42;;;15.98;;
56999;SDS011;42891;50.006;21.964;2022-12-07T23:41:20;24.35;;;14.60;;
56999;SDS011;42891;50.006;21.964;2022-12-07T23:45:22;26.77;;;15.10;;
56999;SDS011;42891;50.006;21.964;2022-12-07T23:49:23;23.27;;;14.45;;
56999;SDS011;42891;50.006;21.964;2022-12-07T23:53:23;23.00;;;14.20;;
56999;SDS011;42891;50.006;21.964;2022-12-07T23:57:27;24.00;;;14.27;;
